Pagrindinis puslapis
METAR-TAF:

METAR-TAF

Oro uostai :

Sanya, Kinija

platuma: 18-18N, ilguma: 109-24E, Aukštis: 27 m

Dabartinis oras

Ataskaita buvo paskelbta 1 valandą ir 15 minutes, ne 09:00 UTC
Vėjas 10 kt iš Vakarų, svyruoja nuo Pietvakarių ir Vakarų/Šiaurės Vakarų
Temperatūra 25°C
Drėgmė 57%
Slėgis 1018 hPa
Matomumas 10 km arba daugiau
Mažai debesys ne aukštis 1500 ft
Išsisklaidę debesys ne aukštis 2000 ft

METAR: ZJSY 170900Z 26005MPS 220V290 9999 FEW015 SCT020 25/16 Q1018 BECMG AT1050 04005MPS

Laikas: 18:15 (10:15 UTC)

Prognozė

Ataskaita buvo paskelbta 7 valandos ir 12 minutes, ne 03:03 UTC
Prognozė galioja nuo 17 metu 06 UTC su 18 metu 06 UTC
Vėjas 8 kt iš Rytų
Matomumas 10 km arba daugiau
Mažai debesys ne aukštis 2000 ft

TAF: ZJSY 170303Z 1706/1806 08004MPS 9999 FEW020 TX26/1706Z TN15/1721Z

Orai ataskaitas ir orų prognozės (METAR, TAF).

turimą stotys yra geltonos ir raudonos taškus žemėlapyje.

Perkelti pele per norėdami pamatyti stoties vardą.

Tada spustelėkite, norėdami matyti oro stebėjimo ir prognozės.

Norėdami pakeisti žemėlapį: spustelėkite ant žalios mygtukų su juodo kryžiaus žemyn,; žalią mygtuką su brūkšneliu, jei norite nutolinti; arba žalių rodyklių gretimoms žemėlapius.


METAR-TAF: